sensor_id;sensor_type;location;lat;lon;timestamp;pressure;altitude;pressure_sealevel;temperature;humidity
6514;BME280;3290;47.716;9.070;2023-03-26T00:01:27;96590.25;;;10.33;91.56
6514;BME280;3290;47.716;9.070;2023-03-26T00:03:54;96587.19;;;10.18;92.99
6514;BME280;3290;47.716;9.070;2023-03-26T00:06:24;96585.34;;;9.83;94.84
6514;BME280;3290;47.716;9.070;2023-03-26T00:08:51;96590.84;;;9.99;94.77
6514;BME280;3290;47.716;9.070;2023-03-26T00:11:18;96579.28;;;10.06;94.53
6514;BME280;3290;47.716;9.070;2023-03-26T00:13:45;96591.44;;;10.01;92.43
6514;BME280;3290;47.716;9.070;2023-03-26T00:16:12;96585.63;;;10.17;91.58
6514;BME280;3290;47.716;9.070;2023-03-26T00:18:39;96591.34;;;10.07;92.97
6514;BME280;3290;47.716;9.070;2023-03-26T00:21:07;96585.47;;;10.12;92.47
6514;BME280;3290;47.716;9.070;2023-03-26T00:23:34;96583.25;;;9.91;94.30
6514;BME280;3290;47.716;9.070;2023-03-26T00:26:05;96580.31;;;9.46;96.54
6514;BME280;3290;47.716;9.070;2023-03-26T00:28:35;96583.44;;;9.36;97.42
6514;BME280;3290;47.716;9.070;2023-03-26T00:31:04;96584.97;;;9.19;98.80
6514;BME280;3290;47.716;9.070;2023-03-26T00:33:31;96576.66;;;9.05;98.79
6514;BME280;3290;47.716;9.070;2023-03-26T00:35:58;96578.56;;;9.16;98.23
6514;BME280;3290;47.716;9.070;2023-03-26T00:38:26;96578.44;;;8.80;100.00
6514;BME280;3290;47.716;9.070;2023-03-26T00:40:53;96577.53;;;8.92;100.00
6514;BME280;3290;47.716;9.070;2023-03-26T00:43:20;96571.72;;;8.66;100.00
6514;BME280;3290;47.716;9.070;2023-03-26T00:45:47;96575.69;;;8.38;100.00
6514;BME280;3290;47.716;9.070;2023-03-26T00:48:13;96565.69;;;8.29;100.00
6514;BME280;3290;47.716;9.070;2023-03-26T00:50:40;96573.84;;;8.45;100.00
6514;BME280;3290;47.716;9.070;2023-03-26T00:53:07;96574.19;;;8.18;100.00
6514;BME280;3290;47.716;9.070;2023-03-26T00:55:34;96572.28;;;8.38;100.00
6514;BME280;3290;47.716;9.070;2023-03-26T00:58:00;96571.59;;;8.18;100.00
6514;BME280;3290;47.716;9.070;2023-03-26T01:00:33;96578.94;;;8.34;100.00
6514;BME280;3290;47.716;9.070;2023-03-26T01:03:01;96556.88;;;8.60;100.00
6514;BME280;3290;47.716;9.070;2023-03-26T01:10:43;96550.50;;;8.56;100.00
6514;BME280;3290;47.716;9.070;2023-03-26T01:13:16;96555.16;;;8.78;100.00
6514;BME280;3290;47.716;9.070;2023-03-26T01:15:42;96545.56;;;8.97;100.00
6514;BME280;3290;47.716;9.070;2023-03-26T01:18:08;96540.09;;;9.05;100.00
6514;BME280;3290;47.716;9.070;2023-03-26T01:20:35;96526.19;;;9.04;100.00
6514;BME280;3290;47.716;9.070;2023-03-26T01:23:11;96527.06;;;8.74;100.00
6514;BME280;3290;47.716;9.070;2023-03-26T01:25:44;96530.72;;;8.67;100.00
6514;BME280;3290;47.716;9.070;2023-03-26T01:28:15;96526.13;;;8.93;100.00
6514;BME280;3290;47.716;9.070;2023-03-26T01:30:50;96527.59;;;9.07;100.00
6514;BME280;3290;47.716;9.070;2023-03-26T01:33:57;96516.84;;;9.15;100.00
6514;BME280;3290;47.716;9.070;2023-03-26T01:36:28;96514.22;;;8.97;100.00
6514;BME280;3290;47.716;9.070;2023-03-26T01:39:43;96515.34;;;8.83;100.00
6514;BME280;3290;47.716;9.070;2023-03-26T01:42:36;96517.34;;;8.81;100.00
6514;BME280;3290;47.716;9.070;2023-03-26T01:45:17;96516.56;;;8.80;100.00
6514;BME280;3290;47.716;9.070;2023-03-26T01:47:45;96515.91;;;8.85;100.00
6514;BME280;3290;47.716;9.070;2023-03-26T01:50:11;96510.91;;;8.83;100.00
6514;BME280;3290;47.716;9.070;2023-03-26T01:52:37;96494.47;;;9.01;100.00
6514;BME280;3290;47.716;9.070;2023-03-26T01:55:04;96486.47;;;8.96;100.00
6514;BME280;3290;47.716;9.070;2023-03-26T02:00:31;96475.03;;;8.97;100.00
6514;BME280;3290;47.716;9.070;2023-03-26T02:05:36;96453.06;;;8.80;100.00
6514;BME280;3290;47.716;9.070;2023-03-26T02:08:24;96451.91;;;8.76;100.00
6514;BME280;3290;47.716;9.070;2023-03-26T02:10:57;96448.19;;;8.66;100.00
6514;BME280;3290;47.716;9.070;2023-03-26T02:13:24;96442.03;;;8.78;100.00
6514;BME280;3290;47.716;9.070;2023-03-26T02:15:58;96441.69;;;8.92;100.00
6514;BME280;3290;47.716;9.070;2023-03-26T02:18:24;96442.81;;;9.03;100.00
6514;BME280;3290;47.716;9.070;2023-03-26T02:21:06;96438.75;;;9.07;100.00
6514;BME280;3290;47.716;9.070;2023-03-26T02:23:34;96429.25;;;9.12;100.00
6514;BME280;3290;47.716;9.070;2023-03-26T02:26:10;96432.97;;;9.22;100.00
6514;BME280;3290;47.716;9.070;2023-03-26T02:28:36;96426.69;;;9.41;99.51
6514;BME280;3290;47.716;9.070;2023-03-26T02:31:02;96430.34;;;9.40;99.82
6514;BME280;3290;47.716;9.070;2023-03-26T02:33:29;96418.63;;;9.43;100.00
6514;BME280;3290;47.716;9.070;2023-03-26T02:35:55;96411.09;;;9.35;100.00
6514;BME280;3290;47.716;9.070;2023-03-26T02:38:24;96399.13;;;9.27;100.00
6514;BME280;3290;47.716;9.070;2023-03-26T02:40:51;96390.97;;;9.35;100.00
6514;BME280;3290;47.716;9.070;2023-03-26T02:43:17;96391.88;;;9.29;100.00
6514;BME280;3290;47.716;9.070;2023-03-26T02:45:42;96384.28;;;9.39;100.00
6514;BME280;3290;47.716;9.070;2023-03-26T02:48:08;96376.31;;;9.34;100.00
6514;BME280;3290;47.716;9.070;2023-03-26T02:50:33;96371.06;;;9.34;100.00
6514;BME280;3290;47.716;9.070;2023-03-26T02:53:01;96366.94;;;9.27;100.00
6514;BME280;3290;47.716;9.070;2023-03-26T02:55:26;96359.13;;;9.27;100.00
6514;BME280;3290;47.716;9.070;2023-03-26T02:57:51;96361.47;;;9.17;100.00
6514;BME280;3290;47.716;9.070;2023-03-26T03:00:17;96366.38;;;9.25;100.00
6514;BME280;3290;47.716;9.070;2023-03-26T03:02:46;96367.41;;;9.24;100.00
6514;BME280;3290;47.716;9.070;2023-03-26T03:05:12;96362.88;;;9.31;100.00
6514;BME280;3290;47.716;9.070;2023-03-26T03:07:38;96352.78;;;9.34;100.00
6514;BME280;3290;47.716;9.070;2023-03-26T03:10:05;96329.50;;;9.15;100.00
6514;BME280;3290;47.716;9.070;2023-03-26T03:12:33;96328.00;;;8.90;100.00
6514;BME280;3290;47.716;9.070;2023-03-26T03:14:58;96316.25;;;8.63;100.00
6514;BME280;3290;47.716;9.070;2023-03-26T03:17:23;96312.03;;;8.80;100.00
6514;BME280;3290;47.716;9.070;2023-03-26T03:19:49;96318.97;;;9.21;100.00
6514;BME280;3290;47.716;9.070;2023-03-26T03:22:14;96326.63;;;9.34;100.00
6514;BME280;3290;47.716;9.070;2023-03-26T03:24:40;96313.56;;;9.34;100.00
6514;BME280;3290;47.716;9.070;2023-03-26T03:27:08;96315.25;;;9.47;99.50
6514;BME280;3290;47.716;9.070;2023-03-26T03:29:33;96314.41;;;9.46;100.00
6514;BME280;3290;47.716;9.070;2023-03-26T03:31:59;96301.56;;;9.16;100.00
6514;BME280;3290;47.716;9.070;2023-03-26T03:34:25;96291.00;;;8.93;100.00
6514;BME280;3290;47.716;9.070;2023-03-26T03:36:50;96291.22;;;8.91;100.00
6514;BME280;3290;47.716;9.070;2023-03-26T03:39:16;96281.72;;;8.97;100.00
6514;BME280;3290;47.716;9.070;2023-03-26T03:41:41;96285.03;;;9.04;100.00
6514;BME280;3290;47.716;9.070;2023-03-26T03:44:07;96286.66;;;8.87;100.00
6514;BME280;3290;47.716;9.070;2023-03-26T03:46:32;96291.44;;;8.90;100.00
6514;BME280;3290;47.716;9.070;2023-03-26T03:48:57;96292.09;;;9.32;100.00
6514;BME280;3290;47.716;9.070;2023-03-26T03:51:23;96294.75;;;9.44;100.00
6514;BME280;3290;47.716;9.070;2023-03-26T03:53:49;96291.66;;;9.35;100.00
6514;BME280;3290;47.716;9.070;2023-03-26T03:56:15;96299.72;;;9.34;100.00
6514;BME280;3290;47.716;9.070;2023-03-26T03:58:43;96297.13;;;9.16;100.00
6514;BME280;3290;47.716;9.070;2023-03-26T04:01:10;96301.41;;;9.28;100.00
6514;BME280;3290;47.716;9.070;2023-03-26T04:03:37;96306.00;;;9.44;100.00
6514;BME280;3290;47.716;9.070;2023-03-26T04:06:04;96305.81;;;9.57;100.00
6514;BME280;3290;47.716;9.070;2023-03-26T04:08:31;96280.69;;;9.56;100.00
6514;BME280;3290;47.716;9.070;2023-03-26T04:10:57;96286.00;;;9.50;100.00
6514;BME280;3290;47.716;9.070;2023-03-26T04:13:22;96280.53;;;9.40;100.00
6514;BME280;3290;47.716;9.070;2023-03-26T04:15:48;96274.50;;;9.10;100.00
6514;BME280;3290;47.716;9.070;2023-03-26T04:18:13;96270.00;;;8.99;100.00
6514;BME280;3290;47.716;9.070;2023-03-26T04:20:40;96257.50;;;8.72;100.00
6514;BME280;3290;47.716;9.070;2023-03-26T04:23:14;96261.06;;;8.77;100.00
6514;BME280;3290;47.716;9.070;2023-03-26T04:25:49;96266.94;;;8.91;100.00
6514;BME280;3290;47.716;9.070;2023-03-26T04:28:38;96247.25;;;8.88;100.00
6514;BME280;3290;47.716;9.070;2023-03-26T04:31:10;96244.31;;;8.67;100.00
6514;BME280;3290;47.716;9.070;2023-03-26T04:33:40;96234.50;;;8.80;100.00
6514;BME280;3290;47.716;9.070;2023-03-26T04:36:11;96233.91;;;8.96;100.00
6514;BME280;3290;47.716;9.070;2023-03-26T04:38:45;96220.63;;;8.98;100.00
6514;BME280;3290;47.716;9.070;2023-03-26T04:41:14;96230.06;;;8.81;100.00
6514;BME280;3290;47.716;9.070;2023-03-26T04:43:40;96232.41;;;8.89;100.00
6514;BME280;3290;47.716;9.070;2023-03-26T04:46:12;96233.16;;;9.18;100.00
6514;BME280;3290;47.716;9.070;2023-03-26T04:48:38;96225.16;;;9.31;100.00
6514;BME280;3290;47.716;9.070;2023-03-26T04:51:04;96222.56;;;9.31;100.00
6514;BME280;3290;47.716;9.070;2023-03-26T04:53:34;96217.25;;;9.09;100.00
6514;BME280;3290;47.716;9.070;2023-03-26T04:56:11;96220.47;;;8.93;100.00
6514;BME280;3290;47.716;9.070;2023-03-26T04:58:39;96212.44;;;8.94;100.00
6514;BME280;3290;47.716;9.070;2023-03-26T05:01:05;96201.31;;;8.99;100.00
6514;BME280;3290;47.716;9.070;2023-03-26T05:03:32;96199.13;;;8.96;100.00
6514;BME280;3290;47.716;9.070;2023-03-26T05:05:58;96189.03;;;8.99;100.00
6514;BME280;3290;47.716;9.070;2023-03-26T05:08:24;96175.09;;;9.05;100.00
6514;BME280;3290;47.716;9.070;2023-03-26T05:10:51;96174.66;;;8.79;100.00
6514;BME280;3290;47.716;9.070;2023-03-26T05:13:16;96180.59;;;8.86;100.00
6514;BME280;3290;47.716;9.070;2023-03-26T05:15:42;96166.84;;;8.90;100.00
6514;BME280;3290;47.716;9.070;2023-03-26T05:18:07;96164.50;;;8.89;100.00
6514;BME280;3290;47.716;9.070;2023-03-26T05:20:33;96152.88;;;8.85;100.00
6514;BME280;3290;47.716;9.070;2023-03-26T05:22:58;96159.41;;;8.76;100.00
6514;BME280;3290;47.716;9.070;2023-03-26T05:25:24;96150.81;;;8.87;100.00
6514;BME280;3290;47.716;9.070;2023-03-26T05:27:49;96151.50;;;8.82;100.00
6514;BME280;3290;47.716;9.070;2023-03-26T05:30:18;96143.59;;;8.89;100.00
6514;BME280;3290;47.716;9.070;2023-03-26T05:32:44;96131.66;;;8.93;100.00
6514;BME280;3290;47.716;9.070;2023-03-26T05:35:11;96122.44;;;8.79;100.00
6514;BME280;3290;47.716;9.070;2023-03-26T05:37:37;96126.03;;;8.78;100.00
6514;BME280;3290;47.716;9.070;2023-03-26T05:40:06;96120.97;;;8.83;100.00
6514;BME280;3290;47.716;9.070;2023-03-26T05:42:36;96115.59;;;8.78;100.00
6514;BME280;3290;47.716;9.070;2023-03-26T05:45:01;96116.31;;;8.85;100.00
6514;BME280;3290;47.716;9.070;2023-03-26T05:47:26;96114.09;;;9.00;100.00
6514;BME280;3290;47.716;9.070;2023-03-26T05:49:52;96112.16;;;9.07;100.00
6514;BME280;3290;47.716;9.070;2023-03-26T05:52:17;96100.25;;;9.11;100.00
6514;BME280;3290;47.716;9.070;2023-03-26T05:54:43;96098.06;;;8.96;100.00
6514;BME280;3290;47.716;9.070;2023-03-26T05:57:08;96090.44;;;9.06;100.00
6514;BME280;3290;47.716;9.070;2023-03-26T05:59:33;96093.41;;;8.98;100.00
6514;BME280;3290;47.716;9.070;2023-03-26T06:01:59;96094.34;;;9.26;100.00
6514;BME280;3290;47.716;9.070;2023-03-26T06:04:24;96096.41;;;9.24;100.00
6514;BME280;3290;47.716;9.070;2023-03-26T06:06:52;96103.22;;;9.48;100.00
6514;BME280;3290;47.716;9.070;2023-03-26T06:09:18;96104.94;;;9.65;100.00
6514;BME280;3290;47.716;9.070;2023-03-26T06:11:43;96096.19;;;9.60;100.00
6514;BME280;3290;47.716;9.070;2023-03-26T06:14:09;96096.28;;;9.65;100.00
6514;BME280;3290;47.716;9.070;2023-03-26T06:16:34;96092.66;;;9.66;100.00
6514;BME280;3290;47.716;9.070;2023-03-26T06:19:00;96082.53;;;9.58;100.00
6514;BME280;3290;47.716;9.070;2023-03-26T06:21:26;96086.97;;;9.57;100.00
6514;BME280;3290;47.716;9.070;2023-03-26T06:23:51;96077.88;;;9.15;100.00
6514;BME280;3290;47.716;9.070;2023-03-26T06:26:17;96072.31;;;9.34;100.00
6514;BME280;3290;47.716;9.070;2023-03-26T06:28:43;96076.50;;;9.69;100.00
6514;BME280;3290;47.716;9.070;2023-03-26T06:31:08;96073.69;;;9.36;100.00
6514;BME280;3290;47.716;9.070;2023-03-26T06:33:33;96077.09;;;9.37;100.00
6514;BME280;3290;47.716;9.070;2023-03-26T06:35:59;96059.38;;;9.50;100.00
6514;BME280;3290;47.716;9.070;2023-03-26T06:38:25;96062.31;;;9.65;100.00
6514;BME280;3290;47.716;9.070;2023-03-26T06:40:50;96071.50;;;9.56;100.00
6514;BME280;3290;47.716;9.070;2023-03-26T06:43:16;96060.25;;;9.67;100.00
6514;BME280;3290;47.716;9.070;2023-03-26T06:45:42;96055.41;;;9.36;100.00
6514;BME280;3290;47.716;9.070;2023-03-26T06:48:07;96054.69;;;9.52;100.00
6514;BME280;3290;47.716;9.070;2023-03-26T06:50:33;96043.44;;;9.63;100.00
6514;BME280;3290;47.716;9.070;2023-03-26T06:52:58;96024.56;;;9.61;100.00
6514;BME280;3290;47.716;9.070;2023-03-26T06:55:24;96021.03;;;9.67;100.00
6514;BME280;3290;47.716;9.070;2023-03-26T06:57:51;96027.91;;;9.84;100.00
6514;BME280;3290;47.716;9.070;2023-03-26T07:00:18;96029.03;;;9.88;100.00
6514;BME280;3290;47.716;9.070;2023-03-26T07:02:44;96034.25;;;10.11;100.00
6514;BME280;3290;47.716;9.070;2023-03-26T07:05:09;96039.63;;;10.04;100.00
6514;BME280;3290;47.716;9.070;2023-03-26T07:07:35;96051.44;;;10.07;100.00
6514;BME280;3290;47.716;9.070;2023-03-26T07:10:00;96059.91;;;10.25;100.00
6514;BME280;3290;47.716;9.070;2023-03-26T07:12:26;96054.66;;;10.25;100.00
6514;BME280;3290;47.716;9.070;2023-03-26T07:14:51;96035.00;;;10.23;100.00
6514;BME280;3290;47.716;9.070;2023-03-26T07:17:16;96024.81;;;10.10;100.00
6514;BME280;3290;47.716;9.070;2023-03-26T07:19:42;96016.91;;;10.21;100.00
6514;BME280;3290;47.716;9.070;2023-03-26T07:22:14;96016.00;;;10.27;100.00
6514;BME280;3290;47.716;9.070;2023-03-26T07:24:41;96017.09;;;10.31;100.00
6514;BME280;3290;47.716;9.070;2023-03-26T07:27:35;96021.22;;;10.27;100.00
6514;BME280;3290;47.716;9.070;2023-03-26T07:30:07;96017.56;;;10.28;100.00
6514;BME280;3290;47.716;9.070;2023-03-26T07:35:45;96029.44;;;9.69;100.00
6514;BME280;3290;47.716;9.070;2023-03-26T07:45:53;95986.06;;;9.45;100.00
6514;BME280;3290;47.716;9.070;2023-03-26T07:48:21;95994.63;;;9.68;100.00
6514;BME280;3290;47.716;9.070;2023-03-26T07:50:52;95969.94;;;9.76;100.00
6514;BME280;3290;47.716;9.070;2023-03-26T07:53:18;95978.34;;;9.78;100.00
6514;BME280;3290;47.716;9.070;2023-03-26T07:55:57;95983.66;;;10.22;100.00
6514;BME280;3290;47.716;9.070;2023-03-26T08:12:05;95940.53;;;10.08;100.00
6514;BME280;3290;47.716;9.070;2023-03-26T08:18:25;95964.91;;;9.86;100.00
6514;BME280;3290;47.716;9.070;2023-03-26T08:20:57;95967.22;;;9.71;100.00
6514;BME280;3290;47.716;9.070;2023-03-26T08:28:57;95933.91;;;10.05;100.00
6514;BME280;3290;47.716;9.070;2023-03-26T08:31:33;95954.72;;;10.12;100.00
6514;BME280;3290;47.716;9.070;2023-03-26T08:33:59;95945.31;;;9.99;100.00
6514;BME280;3290;47.716;9.070;2023-03-26T08:36:25;95944.84;;;9.63;100.00
6514;BME280;3290;47.716;9.070;2023-03-26T08:38:51;95943.88;;;9.81;100.00
6514;BME280;3290;47.716;9.070;2023-03-26T08:46:56;95925.41;;;9.98;100.00
6514;BME280;3290;47.716;9.070;2023-03-26T08:52:23;95923.78;;;10.25;100.00
6514;BME280;3290;47.716;9.070;2023-03-26T09:11:27;95944.13;;;10.51;100.00
6514;BME280;3290;47.716;9.070;2023-03-26T09:20:17;95919.03;;;10.22;100.00
6514;BME280;3290;47.716;9.070;2023-03-26T09:26:03;95926.91;;;10.55;100.00
6514;BME280;3290;47.716;9.070;2023-03-26T09:28:53;95932.47;;;10.75;100.00
6514;BME280;3290;47.716;9.070;2023-03-26T09:37:17;95949.38;;;10.83;100.00
6514;BME280;3290;47.716;9.070;2023-03-26T09:42:43;95987.34;;;10.37;100.00
6514;BME280;3290;47.716;9.070;2023-03-26T09:46:02;95997.34;;;10.68;100.00
6514;BME280;3290;47.716;9.070;2023-03-26T09:51:09;96008.28;;;10.65;100.00
6514;BME280;3290;47.716;9.070;2023-03-26T09:56:19;95994.94;;;10.82;100.00
6514;BME280;3290;47.716;9.070;2023-03-26T10:12:24;95971.69;;;10.86;100.00
6514;BME280;3290;47.716;9.070;2023-03-26T10:20:51;95954.97;;;11.83;99.71
6514;BME280;3290;47.716;9.070;2023-03-26T10:31:46;95936.53;;;13.24;90.16
6514;BME280;3290;47.716;9.070;2023-03-26T10:53:35;95946.91;;;12.42;94.90
6514;BME280;3290;47.716;9.070;2023-03-26T10:56:06;95949.28;;;12.43;96.32
6514;BME280;3290;47.716;9.070;2023-03-26T10:58:38;95947.19;;;12.45;96.59
6514;BME280;3290;47.716;9.070;2023-03-26T11:01:10;95948.94;;;12.09;97.40
6514;BME280;3290;47.716;9.070;2023-03-26T11:17:22;95921.78;;;12.25;93.63
6514;BME280;3290;47.716;9.070;2023-03-26T11:25:24;95910.53;;;12.55;93.92
6514;BME280;3290;47.716;9.070;2023-03-26T11:28:04;95903.25;;;12.67;93.53
6514;BME280;3290;47.716;9.070;2023-03-26T11:33:14;95909.56;;;12.09;93.91
6514;BME280;3290;47.716;9.070;2023-03-26T11:35:44;95902.84;;;12.49;92.69
6514;BME280;3290;47.716;9.070;2023-03-26T11:40:51;95892.75;;;12.67;93.86
6514;BME280;3290;47.716;9.070;2023-03-26T11:43:23;95905.06;;;12.62;92.08
6514;BME280;3290;47.716;9.070;2023-03-26T11:45:50;95909.59;;;12.71;92.62
6514;BME280;3290;47.716;9.070;2023-03-26T11:48:29;95906.38;;;12.64;91.87
6514;BME280;3290;47.716;9.070;2023-03-26T11:51:03;95897.97;;;12.62;91.04
6514;BME280;3290;47.716;9.070;2023-03-26T11:53:33;95893.34;;;12.74;91.67
6514;BME280;3290;47.716;9.070;2023-03-26T11:58:45;95888.88;;;13.11;88.58
6514;BME280;3290;47.716;9.070;2023-03-26T12:01:17;95896.56;;;13.22;86.59
6514;BME280;3290;47.716;9.070;2023-03-26T12:06:26;95880.56;;;13.38;85.60
6514;BME280;3290;47.716;9.070;2023-03-26T12:08:53;95876.41;;;13.47;85.75
6514;BME280;3290;47.716;9.070;2023-03-26T12:11:23;95866.00;;;13.72;84.01
6514;BME280;3290;47.716;9.070;2023-03-26T12:13:55;95860.84;;;14.26;82.32
6514;BME280;3290;47.716;9.070;2023-03-26T12:16:22;95850.56;;;14.15;80.39
6514;BME280;3290;47.716;9.070;2023-03-26T12:21:24;95839.19;;;14.93;77.68
6514;BME280;3290;47.716;9.070;2023-03-26T12:26:28;95830.72;;;15.01;73.75
6514;BME280;3290;47.716;9.070;2023-03-26T12:28:55;95823.28;;;15.13;72.03
6514;BME280;3290;47.716;9.070;2023-03-26T12:31:21;95824.38;;;15.07;71.22
6514;BME280;3290;47.716;9.070;2023-03-26T12:34:06;95815.81;;;15.45;71.12
6514;BME280;3290;47.716;9.070;2023-03-26T12:36:32;95816.63;;;15.45;70.05
6514;BME280;3290;47.716;9.070;2023-03-26T12:38:59;95801.56;;;15.46;69.03
6514;BME280;3290;47.716;9.070;2023-03-26T12:41:36;95788.84;;;15.58;68.90
6514;BME280;3290;47.716;9.070;2023-03-26T12:44:28;95784.44;;;15.38;68.61
6514;BME280;3290;47.716;9.070;2023-03-26T12:47:19;95789.50;;;15.78;67.27
6514;BME280;3290;47.716;9.070;2023-03-26T12:49:47;95793.66;;;16.27;65.31
6514;BME280;3290;47.716;9.070;2023-03-26T12:52:56;95787.00;;;16.62;65.39
6514;BME280;3290;47.716;9.070;2023-03-26T13:11:36;95801.16;;;14.99;64.79
6514;BME280;3290;47.716;9.070;2023-03-26T13:17:11;95787.72;;;15.01;66.27
6514;BME280;3290;47.716;9.070;2023-03-26T13:25:39;95768.53;;;15.91;61.28
6514;BME280;3290;47.716;9.070;2023-03-26T13:49:15;95740.19;;;14.03;69.60
6514;BME280;3290;47.716;9.070;2023-03-26T13:51:59;95743.31;;;13.91;70.16
6514;BME280;3290;47.716;9.070;2023-03-26T13:57:08;95745.41;;;13.69;76.13
6514;BME280;3290;47.716;9.070;2023-03-26T13:59:37;95747.84;;;13.00;77.64
6514;BME280;3290;47.716;9.070;2023-03-26T14:02:38;95735.56;;;13.15;79.75
6514;BME280;3290;47.716;9.070;2023-03-26T14:07:56;95725.19;;;12.84;81.96
6514;BME280;3290;47.716;9.070;2023-03-26T14:10:26;95731.56;;;13.03;83.57
6514;BME280;3290;47.716;9.070;2023-03-26T14:31:49;95706.19;;;12.26;76.07
6514;BME280;3290;47.716;9.070;2023-03-26T14:37:41;95703.66;;;12.36;77.12
6514;BME280;3290;47.716;9.070;2023-03-26T14:40:27;95722.81;;;12.37;78.45
6514;BME280;3290;47.716;9.070;2023-03-26T14:43:22;95732.84;;;12.03;77.87
6514;BME280;3290;47.716;9.070;2023-03-26T14:46:02;95738.13;;;11.77;77.17
6514;BME280;3290;47.716;9.070;2023-03-26T14:54:11;95752.09;;;11.04;81.70
6514;BME280;3290;47.716;9.070;2023-03-26T15:02:03;95759.94;;;10.83;87.35
6514;BME280;3290;47.716;9.070;2023-03-26T15:43:12;95932.47;;;8.63;100.00
6514;BME280;3290;47.716;9.070;2023-03-26T15:45:44;95933.38;;;8.69;100.00
6514;BME280;3290;47.716;9.070;2023-03-26T16:13:31;95924.97;;;8.78;100.00
6514;BME280;3290;47.716;9.070;2023-03-26T16:18:46;95933.13;;;9.04;100.00
6514;BME280;3290;47.716;9.070;2023-03-26T16:26:10;95935.53;;;9.06;100.00
6514;BME280;3290;47.716;9.070;2023-03-26T16:36:40;95949.75;;;8.98;100.00
6514;BME280;3290;47.716;9.070;2023-03-26T16:47:26;95943.59;;;9.04;100.00
6514;BME280;3290;47.716;9.070;2023-03-26T16:50:17;95938.03;;;9.01;100.00
6514;BME280;3290;47.716;9.070;2023-03-26T16:55:19;95935.78;;;8.93;100.00
6514;BME280;3290;47.716;9.070;2023-03-26T17:11:48;95930.28;;;8.38;100.00
6514;BME280;3290;47.716;9.070;2023-03-26T17:17:37;95925.38;;;8.18;100.00
6514;BME280;3290;47.716;9.070;2023-03-26T17:20:18;95934.66;;;8.26;100.00
6514;BME280;3290;47.716;9.070;2023-03-26T17:22:51;95933.59;;;8.04;100.00
6514;BME280;3290;47.716;9.070;2023-03-26T17:28:14;95937.59;;;7.89;100.00
6514;BME280;3290;47.716;9.070;2023-03-26T17:33:25;95932.72;;;8.10;100.00
6514;BME280;3290;47.716;9.070;2023-03-26T17:41:04;95931.97;;;8.03;100.00
6514;BME280;3290;47.716;9.070;2023-03-26T17:43:50;95927.84;;;8.13;100.00
6514;BME280;3290;47.716;9.070;2023-03-26T17:49:13;95926.41;;;7.99;100.00
6514;BME280;3290;47.716;9.070;2023-03-26T17:54:50;95919.69;;;7.92;100.00
6514;BME280;3290;47.716;9.070;2023-03-26T17:59:49;95923.06;;;7.81;100.00
6514;BME280;3290;47.716;9.070;2023-03-26T18:02:20;95930.56;;;7.89;100.00
6514;BME280;3290;47.716;9.070;2023-03-26T18:04:49;95938.97;;;7.62;100.00
6514;BME280;3290;47.716;9.070;2023-03-26T18:13:01;95934.28;;;7.82;100.00
6514;BME280;3290;47.716;9.070;2023-03-26T18:18:20;95926.53;;;7.93;100.00
6514;BME280;3290;47.716;9.070;2023-03-26T18:20:48;95926.59;;;7.87;100.00
6514;BME280;3290;47.716;9.070;2023-03-26T18:23:43;95914.88;;;7.66;100.00
6514;BME280;3290;47.716;9.070;2023-03-26T18:26:37;95917.16;;;7.74;100.00
6514;BME280;3290;47.716;9.070;2023-03-26T18:29:29;95910.25;;;7.80;100.00
6514;BME280;3290;47.716;9.070;2023-03-26T18:31:56;95912.25;;;7.66;100.00
6514;BME280;3290;47.716;9.070;2023-03-26T18:34:23;95917.94;;;7.75;100.00
6514;BME280;3290;47.716;9.070;2023-03-26T18:36:59;95924.13;;;7.62;100.00
6514;BME280;3290;47.716;9.070;2023-03-26T18:39:38;95926.25;;;7.83;100.00
6514;BME280;3290;47.716;9.070;2023-03-26T18:42:17;95936.50;;;7.96;100.00
6514;BME280;3290;47.716;9.070;2023-03-26T18:44:47;95938.53;;;7.94;100.00
6514;BME280;3290;47.716;9.070;2023-03-26T18:47:13;95944.00;;;7.75;100.00
6514;BME280;3290;47.716;9.070;2023-03-26T18:49:41;95941.00;;;7.89;100.00
6514;BME280;3290;47.716;9.070;2023-03-26T18:52:12;95949.84;;;7.88;100.00
6514;BME280;3290;47.716;9.070;2023-03-26T18:54:38;95949.72;;;7.83;100.00
6514;BME280;3290;47.716;9.070;2023-03-26T18:57:19;95949.16;;;7.81;100.00
6514;BME280;3290;47.716;9.070;2023-03-26T18:59:47;95949.28;;;7.86;99.60
6514;BME280;3290;47.716;9.070;2023-03-26T19:02:14;95958.06;;;8.03;99.68
6514;BME280;3290;47.716;9.070;2023-03-26T19:04:42;95953.50;;;8.16;98.07
6514;BME280;3290;47.716;9.070;2023-03-26T19:07:12;95941.44;;;8.15;98.42
6514;BME280;3290;47.716;9.070;2023-03-26T19:09:38;95952.63;;;8.34;96.69
6514;BME280;3290;47.716;9.070;2023-03-26T19:12:05;95950.78;;;8.23;97.37
6514;BME280;3290;47.716;9.070;2023-03-26T19:14:31;95948.19;;;8.23;97.98
6514;BME280;3290;47.716;9.070;2023-03-26T19:17:02;95950.78;;;8.23;97.28
6514;BME280;3290;47.716;9.070;2023-03-26T19:19:34;95945.16;;;8.37;96.69
6514;BME280;3290;47.716;9.070;2023-03-26T19:22:07;95941.81;;;8.19;96.90
6514;BME280;3290;47.716;9.070;2023-03-26T19:24:35;95931.53;;;8.06;98.62
6514;BME280;3290;47.716;9.070;2023-03-26T19:27:01;95927.34;;;8.45;97.09
6514;BME280;3290;47.716;9.070;2023-03-26T19:29:30;95918.72;;;8.34;98.66
6514;BME280;3290;47.716;9.070;2023-03-26T19:32:29;95916.63;;;8.13;99.26
6514;BME280;3290;47.716;9.070;2023-03-26T19:34:57;95911.00;;;8.38;98.97
6514;BME280;3290;47.716;9.070;2023-03-26T19:37:26;95898.53;;;8.40;97.93
6514;BME280;3290;47.716;9.070;2023-03-26T19:40:00;95908.56;;;8.14;97.84
6514;BME280;3290;47.716;9.070;2023-03-26T19:42:29;95907.00;;;8.25;98.47
6514;BME280;3290;47.716;9.070;2023-03-26T19:44:58;95898.06;;;8.03;99.38
6514;BME280;3290;47.716;9.070;2023-03-26T19:47:37;95904.06;;;8.21;99.57
6514;BME280;3290;47.716;9.070;2023-03-26T19:50:23;95902.44;;;8.20;98.94
6514;BME280;3290;47.716;9.070;2023-03-26T19:55:39;95911.66;;;8.23;100.00
6514;BME280;3290;47.716;9.070;2023-03-26T19:58:08;95906.75;;;8.15;100.00
6514;BME280;3290;47.716;9.070;2023-03-26T20:00:34;95903.41;;;8.08;99.59
6514;BME280;3290;47.716;9.070;2023-03-26T20:03:00;95900.88;;;8.31;99.32
6514;BME280;3290;47.716;9.070;2023-03-26T20:05:29;95906.34;;;8.40;98.56
6514;BME280;3290;47.716;9.070;2023-03-26T20:07:57;95895.75;;;8.13;99.64
6514;BME280;3290;47.716;9.070;2023-03-26T20:10:25;95898.66;;;8.05;100.00
6514;BME280;3290;47.716;9.070;2023-03-26T20:12:51;95894.84;;;8.19;100.00
6514;BME280;3290;47.716;9.070;2023-03-26T20:15:23;95893.44;;;8.05;100.00
6514;BME280;3290;47.716;9.070;2023-03-26T20:17:49;95886.31;;;8.12;100.00